Time;durP1;ratioP1;P1;durP2;ratioP2;P2;SDS_P1;SDS_P2;PMS_P1;PMS_P2;Temp;Humidity;BMP_temperature;BMP_pressure;BME280_temperature;BME280_humidity;BME280_pressure;Samples;Min_cycle;Max_cycle;Signal;HPM_P1;HPM_P2
2021/11/04 00:00:26;;;;;;;0.17;0.17;;;10.30;99.90;;;;;;5050949;28;20150;-73
2021/11/04 00:02:54;;;;;;;1.95;1.88;;;10.30;99.90;;;;;;5050349;28;20252;-73
2021/11/04 00:05:20;;;;;;;0.70;0.70;;;10.30;99.90;;;;;;5032954;28;20187;-73
2021/11/04 00:07:48;;;;;;;2.22;1.65;;;10.30;99.90;;;;;;5032750;28;20205;-73
2021/11/04 00:10:15;;;;;;;0.32;0.32;;;10.30;99.90;;;;;;5050620;28;20161;-73
2021/11/04 00:12:41;;;;;;;0.43;0.43;;;10.30;99.90;;;;;;5050437;28;20220;-73
2021/11/04 00:15:07;;;;;;;1.80;1.70;;;10.20;99.90;;;;;;5032784;28;20171;-73
2021/11/04 00:17:34;;;;;;;3.28;2.22;;;10.20;99.90;;;;;;5032630;28;20162;-74
2021/11/04 00:20:00;;;;;;;1.17;1.13;;;10.30;99.90;;;;;;5037947;28;20181;-74
2021/11/04 00:22:26;;;;;;;0.30;0.30;;;10.30;99.90;;;;;;5012888;28;20194;-74
2021/11/04 00:24:52;;;;;;;1.13;1.13;;;10.20;99.90;;;;;;5030521;28;20155;-74
2021/11/04 00:27:18;;;;;;;2.15;1.95;;;10.20;99.90;;;;;;5030569;28;20166;-74
2021/11/04 00:29:44;;;;;;;0.10;0.10;;;10.30;99.90;;;;;;5030361;28;20154;-74
2021/11/04 00:32:10;;;;;;;0.25;0.25;;;10.30;99.90;;;;;;5030251;28;20194;-73
2021/11/04 00:34:36;;;;;;;1.42;1.38;;;10.30;99.90;;;;;;5030342;28;20159;-74
2021/11/04 00:37:02;;;;;;;0.30;0.30;;;10.40;99.90;;;;;;5012601;28;20162;-74
2021/11/04 00:39:27;;;;;;;1.08;1.08;;;10.40;99.90;;;;;;5029088;28;20166;-74
2021/11/04 00:41:53;;;;;;;0.65;0.65;;;10.30;99.90;;;;;;5029648;28;20158;-74
2021/11/04 00:44:19;;;;;;;1.05;1.05;;;10.40;99.90;;;;;;5012419;28;20170;-74
2021/11/04 00:46:45;;;;;;;0.10;0.10;;;10.40;99.90;;;;;;5030200;28;20231;-75
2021/11/04 00:49:11;;;;;;;0.25;0.25;;;10.40;99.90;;;;;;5030070;28;20174;-74
2021/11/04 00:51:37;;;;;;;1.27;1.08;;;10.40;99.90;;;;;;5012369;28;20173;-74
2021/11/04 00:54:03;;;;;;;0.32;0.32;;;10.30;99.90;;;;;;5029814;28;20205;-74
2021/11/04 00:56:29;;;;;;;6.35;2.95;;;10.20;99.90;;;;;;5029953;28;20218;-74
2021/11/04 00:58:55;;;;;;;2.63;2.20;;;10.20;99.90;;;;;;5029871;28;20185;-74
2021/11/04 01:01:23;;;;;;;1.48;0.65;;;10.20;99.90;;;;;;5029902;28;20178;-73
2021/11/04 01:03:51;;;;;;;0.50;0.50;;;10.20;99.90;;;;;;5028303;28;20237;-73
2021/11/04 01:06:20;;;;;;;0.30;0.30;;;10.10;99.90;;;;;;5029836;28;20535;-74
2021/11/04 01:08:47;;;;;;;0.73;0.73;;;10.10;99.90;;;;;;5028308;28;20174;-73
2021/11/04 01:11:13;;;;;;;1.13;1.13;;;10.20;99.90;;;;;;5029753;28;20257;-74
2021/11/04 01:13:39;;;;;;;0.95;0.77;;;10.20;99.90;;;;;;5029594;28;20205;-74
2021/11/04 01:16:05;;;;;;;6.82;0.73;;;10.20;99.90;;;;;;5029558;28;20200;-74
2021/11/04 01:18:31;;;;;;;1.08;1.08;;;10.10;99.90;;;;;;5028424;28;20166;-74
2021/11/04 01:20:57;;;;;;;1.40;1.38;;;10.20;99.90;;;;;;5028322;28;20167;-74
2021/11/04 01:23:23;;;;;;;0.63;0.63;;;10.20;99.90;;;;;;5027637;28;20197;-73
2021/11/04 01:25:50;;;;;;;0.70;0.70;;;10.10;99.90;;;;;;5029565;28;20241;-73
2021/11/04 01:28:16;;;;;;;0.10;0.10;;;10.10;99.90;;;;;;5011887;28;20237;-74
2021/11/04 01:30:42;;;;;;;1.35;1.35;;;10.20;99.90;;;;;;5029449;28;20154;-74
2021/11/04 01:33:09;;;;;;;0.82;0.82;;;10.20;99.90;;;;;;5027938;28;20209;-73
2021/11/04 01:35:36;;;;;;;0.80;0.80;;;10.10;99.90;;;;;;5029365;28;20154;-74
2021/11/04 01:38:05;;;;;;;0.98;0.90;;;10.20;99.90;;;;;;5028135;28;20169;-74
2021/11/04 01:40:32;;;;;;;1.23;1.23;;;10.10;99.90;;;;;;5029447;28;20194;-74
2021/11/04 01:42:59;;;;;;;2.00;1.88;;;10.10;99.90;;;;;;5028169;28;20208;-74
2021/11/04 01:45:25;;;;;;;5.80;4.20;;;10.10;99.90;;;;;;5029221;28;20234;-74
2021/11/04 01:47:52;;;;;;;0.98;0.98;;;10.10;99.90;;;;;;5029243;28;20163;-73
2021/11/04 01:50:22;;;;;;;1.42;0.50;;;10.10;99.90;;;;;;5028040;28;20185;-75
2021/11/04 01:52:49;;;;;;;9.23;2.53;;;10.20;99.90;;;;;;5027882;28;20205;-74
2021/11/04 01:55:21;;;;;;;0.82;0.82;;;10.20;99.90;;;;;;5033256;28;20165;-74
2021/11/04 01:57:47;;;;;;;0.68;0.68;;;10.30;99.90;;;;;;5015524;28;20205;-73
2021/11/04 02:00:16;;;;;;;0.50;0.50;;;10.20;99.90;;;;;;5015663;28;20192;-74
2021/11/04 02:03:02;;;;;;;1.55;0.93;;;10.10;99.90;;;;;;5032829;28;20264;-74
2021/11/04 02:05:44;;;;;;;1.48;1.38;;;10.10;99.90;;;;;;5033139;28;20169;-74
2021/11/04 02:08:33;;;;;;;1.80;1.65;;;10.10;99.90;;;;;;5033157;28;20164;-75
2021/11/04 02:11:14;;;;;;;2.20;2.10;;;10.10;99.90;;;;;;5015291;28;20249;-75
2021/11/04 02:14:13;;;;;;;0.95;0.95;;;10.10;99.90;;;;;;5049191;28;20205;-75
2021/11/04 02:16:40;;;;;;;0.73;0.57;;;10.00;99.90;;;;;;5034330;28;20252;-74
2021/11/04 02:19:34;;;;;;;0.47;0.47;;;10.10;99.90;;;;;;5038162;28;20188;-75
2021/11/04 02:22:02;;;;;;;4.72;1.70;;;10.20;99.90;;;;;;5052627;28;20600;-75
2021/11/04 02:24:59;;;;;;;0.95;0.95;;;10.20;99.90;;;;;;5052688;28;20192;-74
2021/11/04 02:27:26;;;;;;;0.38;0.38;;;10.10;99.90;;;;;;5034776;28;20169;-74
2021/11/04 02:29:53;;;;;;;0.20;0.20;;;10.10;99.90;;;;;;5052655;28;20165;-74
2021/11/04 02:32:19;;;;;;;0.13;0.13;;;10.10;99.90;;;;;;5034642;28;20204;-75
2021/11/04 02:34:48;;;;;;;0.95;0.88;;;10.10;99.90;;;;;;5052561;28;20185;-75
2021/11/04 02:37:14;;;;;;;4.05;1.30;;;10.10;99.90;;;;;;5052415;28;20185;-75
2021/11/04 02:39:43;;;;;;;0.88;0.88;;;10.10;99.90;;;;;;5051144;28;20162;-75
2021/11/04 02:42:10;;;;;;;0.00;0.00;;;10.10;99.90;;;;;;5052419;28;20211;-75
2021/11/04 02:44:37;;;;;;;1.98;1.17;;;10.10;99.90;;;;;;5051032;28;20233;-74
2021/11/04 02:47:03;;;;;;;0.90;0.90;;;10.10;99.90;;;;;;5052338;28;20161;-74
2021/11/04 02:49:30;;;;;;;0.80;0.80;;;10.30;99.90;;;;;;5050945;28;20172;-74
2021/11/04 02:51:56;;;;;;;0.30;0.30;;;10.10;99.90;;;;;;5050825;28;20204;-75
2021/11/04 02:54:23;;;;;;;0.55;0.55;;;10.10;99.90;;;;;;5052091;28;20189;-74
2021/11/04 02:56:52;;;;;;;1.08;0.40;;;10.20;99.90;;;;;;5052161;28;20184;-75
2021/11/04 02:59:21;;;;;;;0.60;0.60;;;10.10;99.90;;;;;;5052126;28;20157;-75
2021/11/04 03:01:50;;;;;;;1.40;1.30;;;10.10;99.90;;;;;;5051609;28;20200;-75
2021/11/04 03:04:17;;;;;;;0.90;0.90;;;10.20;99.90;;;;;;5051400;28;20233;-75
2021/11/04 03:06:45;;;;;;;2.65;2.42;;;10.10;99.90;;;;;;5052098;28;20165;-75
2021/11/04 03:09:12;;;;;;;1.65;1.10;;;10.10;99.90;;;;;;5051845;28;20189;-75
2021/11/04 03:11:38;;;;;;;0.50;0.50;;;10.30;99.90;;;;;;5051782;28;20170;-75
2021/11/04 03:14:04;;;;;;;0.82;0.82;;;10.20;99.90;;;;;;5051731;28;20200;-75
2021/11/04 03:16:38;;;;;;;0.10;0.10;;;10.30;99.90;;;;;;5051764;28;20161;-75
2021/11/04 03:19:07;;;;;;;1.23;1.23;;;10.30;99.90;;;;;;5051851;28;20180;-75
2021/11/04 03:21:36;;;;;;;1.02;1.00;;;10.30;99.90;;;;;;5050295;28;20219;-74
2021/11/04 03:24:03;;;;;;;3.33;1.70;;;10.40;99.90;;;;;;5051736;28;20161;-74
2021/11/04 03:26:33;;;;;;;1.25;1.15;;;10.40;99.90;;;;;;5051586;28;20166;-74
2021/11/04 03:29:00;;;;;;;0.20;0.20;;;10.50;99.90;;;;;;5051490;28;20165;-75
2021/11/04 03:31:27;;;;;;;0.55;0.55;;;10.30;99.90;;;;;;5051405;28;20165;-75
2021/11/04 03:33:55;;;;;;;0.35;0.35;;;10.40;99.90;;;;;;5051200;28;20242;-74
2021/11/04 03:36:22;;;;;;;1.48;1.45;;;10.40;99.90;;;;;;5051401;28;20217;-75
2021/11/04 03:38:49;;;;;;;0.65;0.65;;;10.50;99.90;;;;;;5051276;28;20641;-74
2021/11/04 03:41:18;;;;;;;1.35;1.20;;;10.40;99.90;;;;;;5049841;28;20276;-74
2021/11/04 03:43:46;;;;;;;0.10;0.10;;;10.40;99.90;;;;;;5051108;28;20217;-74
2021/11/04 03:46:13;;;;;;;1.35;1.27;;;10.40;99.90;;;;;;5051093;28;20523;-74
2021/11/04 03:48:42;;;;;;;1.30;1.30;;;10.40;99.90;;;;;;5051076;28;20165;-74
2021/11/04 03:51:09;;;;;;;2.63;1.63;;;10.50;99.90;;;;;;5050947;28;20166;-74
2021/11/04 03:53:36;;;;;;;1.08;1.08;;;10.50;99.90;;;;;;5050753;28;20201;-73
2021/11/04 03:56:04;;;;;;;0.57;0.57;;;10.50;99.90;;;;;;5050831;28;20160;-74
2021/11/04 03:58:30;;;;;;;1.05;1.05;;;10.40;99.90;;;;;;5050671;28;20166;-74
2021/11/04 04:00:57;;;;;;;1.00;1.00;;;10.40;99.90;;;;;;5050781;28;20161;-74
2021/11/04 04:03:23;;;;;;;0.80;0.80;;;10.50;99.90;;;;;;5050545;28;20237;-75
2021/11/04 04:06:02;;;;;;;2.05;1.95;;;10.50;99.90;;;;;;5032787;28;20179;-75
2021/11/04 04:08:34;;;;;;;1.20;0.85;;;10.50;99.90;;;;;;5050536;28;20161;-74
2021/11/04 04:11:00;;;;;;;0.47;0.47;;;10.50;99.90;;;;;;5032854;28;20169;-75
2021/11/04 04:13:26;;;;;;;0.98;0.98;;;10.70;99.90;;;;;;5032609;28;20205;-75
2021/11/04 04:15:52;;;;;;;0.65;0.65;;;10.70;99.90;;;;;;5049750;28;20165;-75
2021/11/04 04:18:18;;;;;;;0.28;0.28;;;10.80;99.90;;;;;;5050323;28;20661;-74
2021/11/04 04:20:46;;;;;;;3.33;0.95;;;10.60;99.90;;;;;;5050407;28;20183;-74
2021/11/04 04:23:12;;;;;;;0.52;0.52;;;10.60;99.90;;;;;;5050311;28;20189;-75
2021/11/04 04:25:38;;;;;;;1.20;1.13;;;10.50;99.90;;;;;;5050403;28;20157;-75
2021/11/04 04:28:04;;;;;;;0.17;0.17;;;10.50;99.90;;;;;;5032421;28;20245;-74
2021/11/04 04:30:31;;;;;;;0.10;0.10;;;10.50;99.90;;;;;;5050237;28;20161;-75
2021/11/04 04:32:57;;;;;;;4.53;0.95;;;10.50;99.90;;;;;;5032277;28;20555;-74
2021/11/04 04:35:24;;;;;;;0.88;0.88;;;10.40;99.90;;;;;;5032567;28;20195;-74
2021/11/04 04:37:50;;;;;;;0.55;0.55;;;10.40;99.90;;;;;;5050070;28;20168;-75
2021/11/04 04:40:15;;;;;;;2.30;2.08;;;10.40;99.90;;;;;;5050064;28;20507;-75
2021/11/04 04:42:41;;;;;;;0.57;0.57;;;10.40;99.90;;;;;;5049679;28;20197;-75
2021/11/04 04:45:08;;;;;;;0.90;0.90;;;10.30;99.90;;;;;;5032162;28;20178;-74
2021/11/04 04:47:35;;;;;;;0.82;0.82;;;10.20;99.90;;;;;;5031933;28;20169;-75
2021/11/04 04:50:01;;;;;;;0.63;0.63;;;10.10;99.90;;;;;;5049646;28;20217;-74
2021/11/04 04:52:28;;;;;;;0.52;0.52;;;10.10;99.90;;;;;;5031854;28;20201;-75
2021/11/04 04:54:54;;;;;;;2.80;2.22;;;10.10;99.90;;;;;;5049762;28;20168;-75
2021/11/04 04:57:24;;;;;;;2.03;1.92;;;10.10;99.90;;;;;;5049709;28;20196;-75
2021/11/04 04:59:51;;;;;;;1.95;1.85;;;10.10;99.90;;;;;;5022655;28;20185;-74
2021/11/04 05:02:19;;;;;;;0.43;0.40;;;10.20;99.90;;;;;;5029719;28;20236;-75
2021/11/04 05:04:45;;;;;;;0.10;0.10;;;10.10;99.90;;;;;;5042762;28;20642;-74
2021/11/04 05:07:11;;;;;;;1.50;1.40;;;10.20;99.90;;;;;;5049462;28;20153;-74
2021/11/04 05:09:37;;;;;;;1.55;1.00;;;10.10;99.90;;;;;;5049383;28;20244;-75
2021/11/04 05:12:03;;;;;;;2.33;0.63;;;10.10;99.90;;;;;;5047979;28;20204;-75
2021/11/04 05:14:29;;;;;;;0.60;0.60;;;10.10;99.90;;;;;;5049462;28;20185;-75
2021/11/04 05:16:56;;;;;;;0.45;0.45;;;10.20;99.90;;;;;;5049447;28;20172;-75
2021/11/04 05:19:21;;;;;;;1.13;1.13;;;10.20;99.90;;;;;;5049431;28;20165;-75
2021/11/04 05:21:47;;;;;;;1.05;1.05;;;10.30;99.90;;;;;;5049026;28;20193;-75
2021/11/04 05:24:14;;;;;;;0.47;0.47;;;10.20;99.90;;;;;;5048097;28;20169;-75
2021/11/04 05:26:40;;;;;;;0.50;0.50;;;10.20;99.90;;;;;;5049377;28;20161;-75
2021/11/04 05:29:06;;;;;;;2.38;1.20;;;10.20;99.90;;;;;;5049200;28;20169;-75
2021/11/04 05:31:32;;;;;;;0.75;0.75;;;10.20;99.90;;;;;;5049043;28;20184;-75
2021/11/04 05:33:58;;;;;;;0.05;0.05;;;10.10;99.90;;;;;;5049151;28;20185;-75
2021/11/04 05:36:24;;;;;;;3.85;1.23;;;10.10;99.90;;;;;;5047943;28;20174;-75
2021/11/04 05:38:52;;;;;;;2.03;1.77;;;10.20;99.90;;;;;;5031411;28;20235;-75
2021/11/04 05:41:18;;;;;;;0.98;0.98;;;10.20;99.90;;;;;;5048944;28;20158;-75
2021/11/04 05:43:45;;;;;;;1.05;1.05;;;10.20;99.90;;;;;;5030896;28;20207;-75
2021/11/04 05:46:11;;;;;;;0.20;0.20;;;10.20;99.90;;;;;;5025725;28;20582;-75
2021/11/04 05:48:37;;;;;;;0.10;0.10;;;10.20;99.90;;;;;;5030401;28;20184;-75
2021/11/04 05:51:04;;;;;;;3.80;2.70;;;10.30;99.90;;;;;;5031156;28;20296;-74
2021/11/04 05:53:30;;;;;;;0.55;0.55;;;10.30;99.90;;;;;;5030460;28;20215;-75
2021/11/04 05:55:56;;;;;;;1.20;0.65;;;10.20;99.90;;;;;;5048350;28;20162;-74
2021/11/04 05:58:22;;;;;;;1.60;1.52;;;10.30;99.90;;;;;;5048524;28;20158;-75
2021/11/04 06:00:48;;;;;;;0.20;0.20;;;10.30;99.90;;;;;;5048475;28;20567;-75
2021/11/04 06:03:14;;;;;;;4.45;2.15;;;10.30;99.90;;;;;;5048418;28;20224;-75
2021/11/04 06:05:41;;;;;;;0.82;0.82;;;10.30;99.90;;;;;;5030555;28;20177;-74
2021/11/04 06:08:07;;;;;;;1.58;1.45;;;10.40;99.90;;;;;;5030756;28;20181;-74
2021/11/04 06:10:34;;;;;;;0.80;0.80;;;10.40;99.90;;;;;;5048368;28;20193;-75
2021/11/04 06:13:00;;;;;;;0.30;0.30;;;10.40;99.90;;;;;;5030138;28;20197;-74
2021/11/04 06:15:25;;;;;;;1.63;1.52;;;10.40;99.90;;;;;;5048272;28;20664;-75
2021/11/04 06:17:51;;;;;;;0.68;0.68;;;10.50;99.90;;;;;;5048189;28;20219;-74
2021/11/04 06:20:17;;;;;;;0.70;0.70;;;10.50;99.90;;;;;;5048079;28;20193;-75
2021/11/04 06:22:43;;;;;;;0.85;0.85;;;10.50;99.90;;;;;;5030919;28;20535;-74
2021/11/04 06:25:10;;;;;;;1.45;0.70;;;10.80;99.90;;;;;;5030626;28;20184;-74
2021/11/04 06:27:37;;;;;;;0.47;0.47;;;10.60;99.90;;;;;;5048481;28;20193;-74
2021/11/04 06:30:07;;;;;;;0.85;0.85;;;10.70;99.90;;;;;;5048433;28;20189;-76
2021/11/04 06:32:34;;;;;;;0.43;0.43;;;10.70;99.90;;;;;;5047951;28;20205;-75
2021/11/04 06:35:07;;;;;;;1.52;1.23;;;10.70;99.90;;;;;;5047695;28;20165;-75
2021/11/04 06:37:33;;;;;;;0.43;0.43;;;10.80;99.90;;;;;;5047844;28;20158;-74
2021/11/04 06:39:58;;;;;;;0.85;0.85;;;10.70;99.90;;;;;;5049663;28;20170;-75
2021/11/04 06:42:24;;;;;;;1.75;1.65;;;10.90;99.90;;;;;;5032528;28;20169;-75
2021/11/04 06:44:50;;;;;;;0.03;0.03;;;10.90;99.90;;;;;;5034036;28;20204;-73
2021/11/04 06:47:25;;;;;;;0.52;0.52;;;10.90;99.90;;;;;;5033823;28;20169;-75
2021/11/04 06:49:54;;;;;;;0.90;0.88;;;10.90;99.90;;;;;;5033741;28;20173;-75
2021/11/04 06:52:26;;;;;;;1.08;1.08;;;11.00;99.90;;;;;;5051868;28;20168;-74
2021/11/04 06:54:57;;;;;;;5.22;2.28;;;11.10;99.90;;;;;;5051793;28;20169;-74
2021/11/04 06:57:26;;;;;;;2.35;1.45;;;11.00;99.90;;;;;;5051889;28;20149;-74
2021/11/04 06:59:57;;;;;;;0.10;0.10;;;11.20;99.90;;;;;;5033987;28;20171;-74
2021/11/04 07:02:38;;;;;;;1.15;1.13;;;11.00;99.90;;;;;;5030061;28;20229;-74
2021/11/04 07:05:07;;;;;;;0.10;0.10;;;11.20;99.90;;;;;;5031943;28;20154;-74
2021/11/04 07:07:53;;;;;;;0.88;0.88;;;11.00;99.90;;;;;;5030593;28;20166;-75
2021/11/04 07:10:23;;;;;;;0.95;0.85;;;11.10;99.90;;;;;;5031736;28;20154;-75
2021/11/04 07:12:50;;;;;;;4.07;2.80;;;11.20;99.90;;;;;;5031364;28;20190;-74
2021/11/04 07:15:19;;;;;;;1.10;0.98;;;11.20;99.90;;;;;;5030258;28;20170;-74
2021/11/04 07:17:46;;;;;;;0.98;0.98;;;11.30;99.90;;;;;;5031507;28;20182;-74
2021/11/04 07:20:15;;;;;;;1.27;1.17;;;11.40;99.90;;;;;;5030289;28;20181;-74
2021/11/04 07:22:55;;;;;;;1.67;1.58;;;11.50;99.90;;;;;;5031581;28;20208;-74
2021/11/04 07:25:23;;;;;;;1.35;1.00;;;11.60;99.90;;;;;;5031538;28;20189;-74
2021/11/04 07:28:09;;;;;;;1.45;0.93;;;11.50;99.90;;;;;;5031691;28;20193;-75
2021/11/04 07:30:35;;;;;;;4.10;1.98;;;11.70;99.90;;;;;;5030082;28;20178;-75
2021/11/04 07:33:04;;;;;;;1.77;1.67;;;11.70;99.90;;;;;;5031259;28;20190;-75
2021/11/04 07:35:31;;;;;;;1.35;1.35;;;11.70;99.90;;;;;;5029956;28;20170;-75
2021/11/04 07:37:58;;;;;;;2.65;0.70;;;11.70;99.90;;;;;;5031217;28;20186;-74
2021/11/04 07:40:27;;;;;;;1.30;1.20;;;11.60;99.90;;;;;;5031228;28;20158;-74
2021/11/04 07:42:53;;;;;;;1.95;0.98;;;11.50;99.90;;;;;;5031341;28;20158;-74
2021/11/04 07:45:20;;;;;;;2.20;1.35;;;11.60;99.90;;;;;;5029808;28;20178;-74
2021/11/04 07:47:47;;;;;;;0.10;0.10;;;11.60;99.90;;;;;;5029692;28;20202;-75
2021/11/04 07:50:18;;;;;;;0.65;0.60;;;11.70;99.90;;;;;;5029697;28;20174;-74
2021/11/04 07:52:45;;;;;;;0.30;0.30;;;11.70;99.90;;;;;;5031026;28;20190;-75
2021/11/04 07:55:12;;;;;;;2.42;2.05;;;11.80;99.90;;;;;;5029708;28;20170;-75
2021/11/04 07:57:39;;;;;;;0.22;0.15;;;11.90;99.90;;;;;;5029583;28;20529;-75
2021/11/04 08:00:13;;;;;;;1.00;0.90;;;11.80;99.90;;;;;;5029620;28;20170;-74
2021/11/04 08:02:43;;;;;;;18.25;3.40;;;11.80;99.90;;;;;;5037983;28;20208;-74
2021/11/04 08:05:17;;;;;;;0.28;0.28;;;11.90;99.90;;;;;;5048726;28;20548;-75
2021/11/04 08:07:43;;;;;;;1.65;0.85;;;11.80;99.90;;;;;;5048168;28;20545;-74
2021/11/04 08:10:16;;;;;;;2.45;0.88;;;11.80;99.90;;;;;;5032472;28;20200;-74
2021/11/04 08:12:42;;;;;;;4.47;1.52;;;11.80;99.90;;;;;;5050333;28;20157;-74
2021/11/04 08:15:11;;;;;;;0.68;0.68;;;12.30;99.90;;;;;;5023249;28;20193;-74
2021/11/04 08:17:37;;;;;;;0.90;0.90;;;13.00;99.90;;;;;;5035794;28;20256;-74
2021/11/04 08:20:05;;;;;;;0.43;0.43;;;13.40;99.90;;;;;;5050205;28;20164;-74
2021/11/04 08:22:32;;;;;;;1.95;1.80;;;13.50;99.90;;;;;;5039519;28;20174;-74
2021/11/04 08:24:59;;;;;;;0.30;0.28;;;13.90;99.90;;;;;;5031065;28;20182;-73
2021/11/04 08:27:25;;;;;;;0.40;0.40;;;14.10;99.90;;;;;;5025381;28;20217;-74
2021/11/04 08:29:51;;;;;;;0.25;0.25;;;15.20;99.90;;;;;;5031848;28;20196;-73
2021/11/04 08:32:17;;;;;;;1.02;0.43;;;16.30;99.90;;;;;;5031410;28;20585;-74
2021/11/04 08:34:43;;;;;;;0.35;0.35;;;16.30;99.90;;;;;;5031728;28;20220;-74
2021/11/04 08:37:10;;;;;;;0.10;0.10;;;16.20;99.90;;;;;;5030698;28;20532;-74
2021/11/04 08:39:38;;;;;;;0.47;0.47;;;15.50;99.90;;;;;;5015753;28;20209;-75
2021/11/04 08:42:05;;;;;;;0.70;0.70;;;15.00;99.90;;;;;;5011779;28;20242;-74
2021/11/04 08:44:32;;;;;;;0.45;0.45;;;15.80;99.90;;;;;;5020251;28;20189;-74
2021/11/04 08:46:59;;;;;;;0.20;0.20;;;15.80;99.90;;;;;;5030565;28;20158;-74
2021/11/04 08:49:25;;;;;;;0.25;0.25;;;16.00;99.90;;;;;;5046868;28;20204;-74
2021/11/04 08:51:54;;;;;;;0.55;0.55;;;17.50;99.90;;;;;;5031012;28;20173;-74
2021/11/04 08:54:26;;;;;;;0.80;0.80;;;18.80;99.90;;;;;;5031132;28;20200;-75
2021/11/04 08:56:52;;;;;;;1.23;0.68;;;19.30;99.90;;;;;;5049061;28;20208;-74
2021/11/04 08:59:19;;;;;;;0.75;0.75;;;19.50;99.90;;;;;;5049015;28;20161;-74
2021/11/04 09:01:46;;;;;;;1.65;0.60;;;19.20;99.90;;;;;;5048535;28;20717;-74
2021/11/04 09:04:12;;;;;;;1.75;1.40;;;18.50;99.90;;;;;;5048943;28;20213;-74
2021/11/04 09:06:39;;;;;;;1.48;1.05;;;18.30;99.90;;;;;;5048605;28;20195;-74
2021/11/04 09:09:06;;;;;;;0.20;0.20;;;17.40;99.90;;;;;;5048781;28;20153;-74
2021/11/04 09:11:31;;;;;;;0.05;0.05;;;16.40;99.90;;;;;;5048954;28;20731;-74
2021/11/04 09:14:01;;;;;;;0.75;0.65;;;15.80;99.90;;;;;;5041227;28;20193;-74
2021/11/04 09:16:28;;;;;;;0.75;0.75;;;15.40;99.90;;;;;;5043916;28;20189;-74
2021/11/04 09:18:56;;;;;;;0.57;0.57;;;15.10;99.90;;;;;;5046544;28;20146;-74
2021/11/04 09:21:22;;;;;;;0.38;0.38;;;14.30;99.90;;;;;;5025251;28;20237;-74
2021/11/04 09:23:49;;;;;;;0.50;0.50;;;14.00;99.90;;;;;;5048529;28;20212;-74
2021/11/04 09:26:15;;;;;;;0.75;0.75;;;14.30;99.90;;;;;;5030610;28;20204;-74
2021/11/04 09:28:41;;;;;;;0.43;0.43;;;14.40;99.90;;;;;;5048612;28;20165;-74
2021/11/04 09:31:09;;;;;;;0.05;0.05;;;14.40;99.90;;;;;;5046385;28;20161;-74
2021/11/04 09:33:37;;;;;;;0.43;0.35;;;14.70;99.90;;;;;;5028669;28;20201;-74
2021/11/04 09:36:03;;;;;;;0.10;0.10;;;16.10;99.90;;;;;;5028781;28;20200;-73
2021/11/04 09:38:30;;;;;;;0.10;0.10;;;17.30;99.90;;;;;;5011058;28;20201;-72
2021/11/04 09:40:59;;;;;;;0.28;0.28;;;18.20;99.90;;;;;;5028622;28;20162;-73
2021/11/04 09:43:25;;;;;;;0.40;0.40;;;19.40;99.90;;;;;;5028534;28;20188;-74
2021/11/04 09:45:51;;;;;;;0.10;0.10;;;20.60;99.90;;;;;;5028419;28;20196;-74
2021/11/04 09:48:17;;;;;;;0.25;0.25;;;21.10;99.90;;;;;;5010715;28;20170;-74
2021/11/04 09:50:44;;;;;;;0.55;0.40;;;20.80;99.90;;;;;;5028637;28;20158;-74
2021/11/04 09:53:10;;;;;;;0.00;0.00;;;20.90;99.90;;;;;;5028708;28;20664;-74
2021/11/04 09:55:37;;;;;;;0.10;0.10;;;20.60;99.90;;;;;;5010064;28;20201;-75
2021/11/04 09:58:03;;;;;;;1.13;0.73;;;20.20;99.90;;;;;;5028472;28;20164;-74
2021/11/04 10:00:36;;;;;;;0.52;0.52;;;19.80;99.90;;;;;;5010626;28;20203;-75
2021/11/04 10:03:04;;;;;;;0.50;0.30;;;19.60;99.90;;;;;;5028219;28;20221;-74
2021/11/04 10:05:41;;;;;;;0.30;0.30;;;19.90;99.90;;;;;;5028182;28;20201;-74
2021/11/04 10:08:09;;;;;;;0.00;0.00;;;20.00;99.90;;;;;;5034389;28;20160;-74
2021/11/04 10:10:35;;;;;;;0.15;0.15;;;19.30;99.90;;;;;;5048171;28;20153;-75
2021/11/04 10:13:06;;;;;;;0.65;0.30;;;20.20;99.90;;;;;;5047987;28;20249;-73
2021/11/04 10:15:37;;;;;;;0.00;0.00;;;21.60;99.90;;;;;;5032866;28;20193;-74
2021/11/04 10:18:16;;;;;;;0.20;0.20;;;22.20;99.90;;;;;;5052083;28;20157;-79
2021/11/04 10:20:53;;;;;;;0.10;0.10;;;22.00;99.90;;;;;;5032073;28;20203;-74
2021/11/04 10:23:19;;;;;;;0.10;0.10;;;22.30;99.90;;;;;;5033772;28;20172;-74
2021/11/04 10:25:46;;;;;;;0.47;0.30;;;22.50;99.90;;;;;;5033847;28;20208;-72
2021/11/04 10:28:30;;;;;;;0.00;0.00;;;22.80;99.90;;;;;;5051801;28;20158;-74
2021/11/04 10:30:57;;;;;;;0.00;0.00;;;22.70;99.90;;;;;;5051801;28;20167;-73
2021/11/04 10:33:32;;;;;;;0.65;0.65;;;21.00;99.90;;;;;;5033774;28;20217;-73
2021/11/04 10:36:04;;;;;;;0.35;0.35;;;21.00;99.90;;;;;;5051656;28;20188;-74
2021/11/04 10:38:31;;;;;;;0.10;0.10;;;20.40;99.90;;;;;;5051728;28;20244;-74
2021/11/04 10:40:57;;;;;;;0.00;0.00;;;20.70;99.90;;;;;;5051766;28;20164;-74
2021/11/04 10:43:24;;;;;;;0.13;0.13;;;21.00;99.90;;;;;;5051509;28;20244;-73
2021/11/04 10:46:05;;;;;;;1.45;0.30;;;20.70;99.90;;;;;;5033503;28;20299;-73
2021/11/04 10:48:35;;;;;;;0.10;0.10;;;21.40;99.90;;;;;;5033520;28;20168;-74
2021/11/04 10:51:01;;;;;;;0.10;0.10;;;21.20;99.90;;;;;;5051418;28;20153;-73
2021/11/04 10:53:27;;;;;;;0.00;0.00;;;20.90;99.90;;;;;;5033320;28;20259;-73
2021/11/04 10:55:55;;;;;;;0.40;0.40;;;21.40;99.90;;;;;;5051297;28;20185;-73
2021/11/04 10:58:32;;;;;;;0.10;0.10;;;22.40;99.90;;;;;;5051313;28;20161;-73
2021/11/04 11:00:59;;;;;;;4.57;0.95;;;22.50;99.90;;;;;;5051185;28;20187;-73
2021/11/04 11:03:26;;;;;;;0.15;0.15;;;21.70;99.90;;;;;;5033146;28;20247;-73
2021/11/04 11:05:56;;;;;;;0.20;0.20;;;21.10;99.90;;;;;;5033278;28;20192;-73
2021/11/04 11:08:22;;;;;;;0.10;0.10;;;18.90;99.90;;;;;;5029792;28;20215;-72
2021/11/04 11:10:48;;;;;;;0.00;0.00;;;18.10;99.90;;;;;;5031360;28;20153;-72
2021/11/04 11:13:14;;;;;;;0.00;0.00;;;17.70;99.90;;;;;;5045166;28;20223;-72
2021/11/04 11:15:48;;;;;;;2.92;0.38;;;18.20;99.90;;;;;;5050681;28;20193;-72
2021/11/04 11:18:16;;;;;;;0.10;0.10;;;19.00;99.90;;;;;;5050963;28;20157;-72
2021/11/04 11:20:44;;;;;;;0.10;0.10;;;19.30;99.90;;;;;;5045836;28;20191;-72
2021/11/04 11:23:18;;;;;;;0.20;0.20;;;19.60;99.90;;;;;;5032934;28;20176;-72
2021/11/04 11:26:03;;;;;;;0.10;0.10;;;19.30;99.90;;;;;;5032429;28;20216;-73
2021/11/04 11:28:35;;;;;;;0.22;0.22;;;19.50;99.90;;;;;;5050651;28;20210;-77
2021/11/04 11:31:11;;;;;;;0.10;0.10;;;19.00;99.90;;;;;;5050724;28;20168;-75
2021/11/04 11:33:38;;;;;;;0.00;0.00;;;19.40;99.90;;;;;;5032780;28;20282;-75
2021/11/04 11:36:12;;;;;;;0.00;0.00;;;20.20;99.90;;;;;;5032821;28;20228;-74
2021/11/04 11:38:59;;;;;;;0.00;0.00;;;21.20;99.90;;;;;;5032785;28;20179;-74
2021/11/04 11:41:48;;;;;;;0.00;0.00;;;19.80;99.90;;;;;;5032629;28;20165;-75
2021/11/04 11:44:13;;;;;;;0.00;0.00;;;19.70;99.90;;;;;;5032541;28;20212;-75
2021/11/04 11:47:05;;;;;;;0.00;0.00;;;19.40;99.90;;;;;;5050347;28;20192;-72
2021/11/04 11:49:36;;;;;;;0.00;0.00;;;19.10;99.90;;;;;;5032380;28;20227;-72
2021/11/04 11:52:02;;;;;;;0.00;0.00;;;18.90;99.90;;;;;;5050777;28;20158;-73
2021/11/04 11:54:53;;;;;;;0.00;0.00;;;19.10;99.90;;;;;;5032914;28;20601;-72
2021/11/04 11:57:19;;;;;;;0.20;0.20;;;19.60;99.90;;;;;;5028120;28;20571;-73
2021/11/04 11:59:52;;;;;;;0.00;0.00;;;20.80;99.90;;;;;;5049197;28;20610;-73
2021/11/04 12:02:39;;;;;;;0.00;0.00;;;21.80;99.90;;;;;;5050419;28;20220;-74
2021/11/04 12:05:25;;;;;;;0.00;0.00;;;21.60;99.90;;;;;;5019393;28;20185;-73
2021/11/04 12:08:15;;;;;;;0.10;0.10;;;21.00;99.90;;;;;;5027542;28;20201;-73
2021/11/04 12:10:44;;;;;;;0.43;0.43;;;20.90;99.90;;;;;;5038013;28;20173;-73
2021/11/04 12:13:33;;;;;;;0.00;0.00;;;19.90;99.90;;;;;;5049762;28;20208;-73
2021/11/04 12:16:25;;;;;;;0.00;0.00;;;19.30;99.90;;;;;;5049576;28;20184;-73
2021/11/04 12:18:59;;;;;;;0.00;0.00;;;18.90;99.90;;;;;;5046850;28;20208;-73
2021/11/04 12:21:27;;;;;;;0.10;0.10;;;18.40;99.90;;;;;;5031859;28;20183;-73
2021/11/04 12:23:55;;;;;;;0.10;0.10;;;17.70;99.90;;;;;;5049355;28;20211;-73
2021/11/04 12:26:32;;;;;;;0.00;0.00;;;17.50;99.90;;;;;;5031846;28;20173;-73
2021/11/04 12:28:59;;;;;;;0.00;0.00;;;17.50;99.90;;;;;;5031712;28;20245;-73
2021/11/04 12:31:28;;;;;;;0.00;0.00;;;17.40;99.90;;;;;;5049247;28;20172;-73
2021/11/04 12:33:55;;;;;;;0.00;0.00;;;17.30;99.90;;;;;;5049885;28;20211;-73
2021/11/04 12:36:40;;;;;;;0.30;0.30;;;17.40;99.90;;;;;;5031862;28;20192;-73
2021/11/04 12:39:18;;;;;;;0.00;0.00;;;17.30;99.90;;;;;;5031460;28;20169;-74
2021/11/04 12:41:49;;;;;;;0.00;0.00;;;16.90;99.90;;;;;;5049832;28;20161;-74
2021/11/04 12:44:20;;;;;;;0.20;0.20;;;16.80;99.90;;;;;;5031837;28;20196;-74
2021/11/04 12:46:49;;;;;;;0.00;0.00;;;16.80;99.90;;;;;;5031664;28;20173;-74
2021/11/04 12:49:22;;;;;;;0.00;0.00;;;16.60;99.90;;;;;;5031879;28;20176;-74
2021/11/04 12:51:51;;;;;;;0.00;0.00;;;16.70;99.90;;;;;;5028271;28;20186;-74
2021/11/04 12:54:39;;;;;;;0.10;0.10;;;16.60;99.90;;;;;;5049255;28;20276;-74
2021/11/04 12:57:28;;;;;;;0.00;0.00;;;16.50;99.90;;;;;;5031597;28;20173;-74